Blacksburg, VA (24060)

9:18 AM EST on February 13, 2016 (GMT -0500)
APRSWXNET | | Change Station
CLOSE
Current Station
Personal Weather Station
Location: Blacksburg, VA
Elevation: 2086 ft
Nearby Weather Stations
Active Advisory: Wind Chill Advisory Active Notice: Public Information Statement

Elev 2086 ft 37.24 °N, 80.42 °W | Updated 23 minutes ago

Overcast
Overcast
12 °F
Feels Like 12 °F
N
0
Wind Variable Wind from North
Gusts 0.0 mph

Today
High -- | Low -- °F
--% Chance of Precip.
Yesterday
High -- | Low -- °F
Precip. -- in
Pressure 30.22 in
Visibility 7.0 miles
Clouds Mostly Cloudy 2900 ft
Overcast 3400 ft
Windchill 12 °F
Dew Point 3 °F
Humidity 66%
Rainfall in
Snow Depth Not available.
7:13 AM 5:58 PM
Waxing Crescent, 31% visible
METAR KBCB 131355Z AUTO 29014G18KT 7SM BKN029 OVC034 M10/M15 A3022 RMK AO2 T11011148
Pressure 30.22 in
Visibility 7.0 miles
Clouds Mostly Cloudy 2900 ft
Overcast 3400 ft
Windchill 12 °F
Dew Point 3 °F
Humidity 66%
Rainfall in
Snow Depth Not available.
7:13 AM 5:58 PM
Waxing Crescent, 31% visible
METAR KBCB 131355Z AUTO 29014G18KT 7SM BKN029 OVC034 M10/M15 A3022 RMK AO2 T11011148

10-Day Weather Forecast

Almanac

Astronomy

Feb. 13, 2016 Rise Set
Actual Time
Civil Twilight
Nautical Twilight
Astronomical Twilight
Moon
Length of Visible Light
Length of Day
Tomorrow will be .
, % of the Moon is Illuminated

Today's Extremes

State Highs State Lows

Community

WunderPhotos

Upload Photos

1,892,558 photos uploaded!

WunderBlog® & News

Nearby

Air Quality

  Air Quality AQ Index Pollutant
Not available.

Snow Depth

Station Depth Elevation

Earthquake Activity

City Distance Mag. Time & Date
Minimum magnitude displayed is 2.5.

Coastal Water Temperatures

Place Temperature

Stations

Nearby Weather Stations

Station Location Temp. Windchill Dew Point Humidity Wind Precip. Elev Updated Type
                   

Watches & Warnings

Wind Chill Advisory
Issued: 7:06 AM EST Feb. 13, 2016 – National Weather Service

... Wind Chill Advisory remains in effect until 10 am EST Sunday...

* locations... areas of Virginia... West Virginia... and North
Carolina from the Blue Ridge westward.

* Hazard types... strong gusty winds... and very low wind chills.

* Wind chill readings... as low as 10 below.

* Timing... through Sunday morning.

* Impacts... very low wind chill values will lead to hypothermia
and frostbite if not properly protected from the cold.

* Winds... northwest 10 to 20 mph with gusts up to 40 mph.

* Temperatures... 4 to 22 above.

Precautionary/preparedness actions...

A Wind Chill Advisory means that very cold air and strong winds
will combine to generate low wind chills. This will result in
frost bite and lead to hypothermia if precautions are not taken.
If you must venture outdoors... make sure you wear a hat and
gloves.



Rab